Pretty Lady — 9HVY9 — position and weather

sailwx.info

Track history (hours):
 
Tides and Currents Weather Stations Pressure Air Temp Water Temp Dewpoint Dewpoint Depression Visibility Wind Speed Wind Dir Waves Ship Positions

Pretty Lady

Last reported at 2017-Jan-05 04:32 UTC. Time now 2017-Jan-24 21:22 UTC.
Position S 02°08' W 044°10'.
Warning: this ship's position is 19 days out of date.

Length 189 m; draft 11.5 m.

Type: Cargo ship. MMSI: 249617000.

Date/timePositionNaut miles runAvg speedWind from/ knotsBaromVisibWave heightAir tempDewpointWater temp
2017-Jan-05 04:32S 02°08' W 044°10'1010.5
2017-Jan-05 03:33S 02°17' W 044°15'9 9.0
2017-Jan-05 02:33S 02°25' W 044°20'8 8.1
2017-Jan-05 01:33S 02°32' W 044°23'7 6.9
2017-Jan-05 00:33S 02°39' W 044°22'2 1.9
2017-Jan-04 23:32S 02°41' W 044°22'0 0.0
2017-Jan-04 22:26S 02°41' W 044°22'0 0.0
2017-Jan-04 21:32S 02°41' W 044°22'0 0.0
2017-Jan-04 20:17S 02°41' W 044°22'0 0.0
2017-Jan-04 19:11S 02°41' W 044°22'0 0.0
2017-Jan-04 18:29S 02°41' W 044°22'0 0.0
2017-Jan-04 17:32S 02°41' W 044°22'0 0.0
2017-Jan-04 16:20S 02°41' W 044°22'0 0.0
2017-Jan-04 15:32S 02°41' W 044°22'0 0.0
2017-Jan-04 14:32S 02°41' W 044°22'0 0.0
2017-Jan-04 13:32S 02°41' W 044°22'0 0.0
2017-Jan-04 12:31S 02°41' W 044°22'0 0.0
2017-Jan-04 11:32S 02°41' W 044°22'0 0.0
2017-Jan-04 10:31S 02°41' W 044°22'0 0.0
2017-Jan-04 09:19S 02°41' W 044°22'0 0.0
2017-Jan-04 08:22S 02°41' W 044°22'0 0.0
2017-Jan-04 06:31S 02°41' W 044°22'0 0.0
2017-Jan-04 05:28S 02°41' W 044°22'0 0.0
2017-Jan-04 04:31S 02°41' W 044°22'0 0.0
2017-Jan-04 03:31S 02°41' W 044°22'0 0.0
2017-Jan-04 02:31S 02°41' W 044°22'0 0.0
2017-Jan-04 01:22S 02°41' W 044°22'0 0.0
2017-Jan-04 00:31S 02°41' W 044°22'0 0.0
2017-Jan-03 23:22S 02°41' W 044°22'0 0.0
2017-Jan-03 22:31S 02°41' W 044°22'0 0.0
2017-Jan-03 21:31S 02°41' W 044°22'0 0.0
2017-Jan-03 15:31S 02°41' W 044°22'0 0.0
2017-Jan-03 14:31S 02°41' W 044°22'0 0.0
2017-Jan-03 13:31S 02°41' W 044°22'0 0.0
2017-Jan-03 12:31S 02°41' W 044°22'33 1.8
2017-Jan-02 18:17S 02°10' W 044°09'0 0.1
2017-Jan-02 17:32S 02°10' W 044°09'0 0.0
2017-Jan-02 16:32S 02°10' W 044°09'0 0.0
2017-Jan-02 15:29S 02°10' W 044°09'0 0.1
2017-Jan-02 14:32S 02°10' W 044°09'0 0.2
2017-Jan-02 13:20S 02°10' W 044°09'0 0.0
2017-Jan-02 12:29S 02°10' W 044°09'0 0.0
2017-Jan-02 11:29S 02°10' W 044°09'0 0.0
2017-Jan-02 10:32S 02°10' W 044°09'0 0.0
2017-Jan-02 09:29S 02°10' W 044°09'0 0.0
2017-Jan-02 08:29S 02°10' W 044°09'0 0.0
2017-Jan-02 07:32S 02°10' W 044°09'0 0.0
2017-Jan-02 06:32S 02°10' W 044°09'0 0.2
2017-Jan-02 05:32S 02°10' W 044°09'0 0.0
2017-Jan-02 04:32S 02°10' W 044°09'0 0.0
2017-Jan-02 03:32S 02°10' W 044°09'0 0.1
2017-Jan-02 02:32S 02°10' W 044°09'0 0.3
2017-Jan-02 01:32S 02°10' W 044°09'0 0.0
2016-Dec-31 23:31S 02°10' W 044°09'0 0.0
2016-Dec-31 22:31S 02°10' W 044°09'0 0.0
2016-Dec-31 21:28S 02°10' W 044°09'0 0.0
2016-Dec-31 20:31S 02°10' W 044°09'0 0.0
2016-Dec-31 19:28S 02°10' W 044°09'0 0.0
2016-Dec-31 18:31S 02°10' W 044°09'0 0.0
2016-Dec-31 17:31S 02°10' W 044°09'0 0.2
2016-Dec-31 16:31S 02°10' W 044°09'0 0.0
2016-Dec-31 15:28S 02°10' W 044°09'0 0.0
2016-Dec-31 14:31S 02°10' W 044°09'0 0.0
2016-Dec-31 13:31S 02°10' W 044°09'0 0.2
2016-Dec-31 12:31S 02°10' W 044°09'0 0.1
2016-Dec-31 11:28S 02°10' W 044°09'0 0.0
2016-Dec-31 10:22S 02°10' W 044°09'0 0.0
2016-Dec-31 09:28S 02°10' W 044°09'0 0.0
2016-Dec-31 08:31S 02°10' W 044°09'0 0.0
2016-Dec-31 07:31S 02°10' W 044°09'0 0.1
2016-Dec-31 06:31S 02°10' W 044°09'0 0.0
2016-Dec-31 05:31S 02°10' W 044°09'0 0.1
2016-Dec-31 02:07S 02°10' W 044°09'0 0.1
2016-Dec-31 01:10S 02°10' W 044°09'0 0.3
2016-Dec-31 00:22S 02°10' W 044°09'0 0.0
2016-Dec-30 20:10S 02°10' W 044°09'0 0.0
2016-Dec-30 19:21S 02°10' W 044°09'0 0.0
2016-Dec-30 18:33S 02°10' W 044°09'0 0.0
2016-Dec-30 17:33S 02°10' W 044°09'0 0.1
2016-Dec-30 16:33S 02°10' W 044°09'2 0.2
2016-Dec-30 04:29S 02°07' W 044°09'  
Track history (hours):
 
Tides and Currents Weather Stations Pressure Air Temp Water Temp Dewpoint Dewpoint Depression Visibility Wind Speed Wind Dir Waves Ship Positions

Pretty Lady

Last reported at 2017-Jan-05 04:32 UTC. Time now 2017-Jan-24 21:22 UTC.
Position S 02°08' W 044°10'.
Warning: this ship's position is 19 days out of date.

Length 189 m; draft 11.5 m.

Type: Cargo ship. MMSI: 249617000.

Date/timePositionNaut miles runAvg speedWind from/ knotsBaromVisibWave heightAir tempDewpointWater temp
2017-Jan-05 04:32S 02°08' W 044°10'1010.5
2017-Jan-05 03:33S 02°17' W 044°15'9 9.0
2017-Jan-05 02:33S 02°25' W 044°20'8 8.1
2017-Jan-05 01:33S 02°32' W 044°23'7 6.9
2017-Jan-05 00:33S 02°39' W 044°22'2 1.9
2017-Jan-04 23:32S 02°41' W 044°22'0 0.0
2017-Jan-04 22:26S 02°41' W 044°22'0 0.0
2017-Jan-04 21:32S 02°41' W 044°22'0 0.0
2017-Jan-04 20:17S 02°41' W 044°22'0 0.0
2017-Jan-04 19:11S 02°41' W 044°22'0 0.0
2017-Jan-04 18:29S 02°41' W 044°22'0 0.0
2017-Jan-04 17:32S 02°41' W 044°22'0 0.0
2017-Jan-04 16:20S 02°41' W 044°22'0 0.0
2017-Jan-04 15:32S 02°41' W 044°22'0 0.0
2017-Jan-04 14:32S 02°41' W 044°22'0 0.0
2017-Jan-04 13:32S 02°41' W 044°22'0 0.0
2017-Jan-04 12:31S 02°41' W 044°22'0 0.0
2017-Jan-04 11:32S 02°41' W 044°22'0 0.0
2017-Jan-04 10:31S 02°41' W 044°22'0 0.0
2017-Jan-04 09:19S 02°41' W 044°22'0 0.0
2017-Jan-04 08:22S 02°41' W 044°22'0 0.0
2017-Jan-04 06:31S 02°41' W 044°22'0 0.0
2017-Jan-04 05:28S 02°41' W 044°22'0 0.0
2017-Jan-04 04:31S 02°41' W 044°22'0 0.0
2017-Jan-04 03:31S 02°41' W 044°22'0 0.0
2017-Jan-04 02:31S 02°41' W 044°22'0 0.0
2017-Jan-04 01:22S 02°41' W 044°22'0 0.0
2017-Jan-04 00:31S 02°41' W 044°22'0 0.0
2017-Jan-03 23:22S 02°41' W 044°22'0 0.0
2017-Jan-03 22:31S 02°41' W 044°22'0 0.0
2017-Jan-03 21:31S 02°41' W 044°22'0 0.0
2017-Jan-03 15:31S 02°41' W 044°22'0 0.0
2017-Jan-03 14:31S 02°41' W 044°22'0 0.0
2017-Jan-03 13:31S 02°41' W 044°22'0 0.0
2017-Jan-03 12:31S 02°41' W 044°22'33 1.8
2017-Jan-02 18:17S 02°10' W 044°09'0 0.1
2017-Jan-02 17:32S 02°10' W 044°09'0 0.0
2017-Jan-02 16:32S 02°10' W 044°09'0 0.0
2017-Jan-02 15:29S 02°10' W 044°09'0 0.1
2017-Jan-02 14:32S 02°10' W 044°09'0 0.2
2017-Jan-02 13:20S 02°10' W 044°09'0 0.0
2017-Jan-02 12:29S 02°10' W 044°09'0 0.0
2017-Jan-02 11:29S 02°10' W 044°09'0 0.0
2017-Jan-02 10:32S 02°10' W 044°09'0 0.0
2017-Jan-02 09:29S 02°10' W 044°09'0 0.0
2017-Jan-02 08:29S 02°10' W 044°09'0 0.0
2017-Jan-02 07:32S 02°10' W 044°09'0 0.0
2017-Jan-02 06:32S 02°10' W 044°09'0 0.2
2017-Jan-02 05:32S 02°10' W 044°09'0 0.0
2017-Jan-02 04:32S 02°10' W 044°09'0 0.0
2017-Jan-02 03:32S 02°10' W 044°09'0 0.1
2017-Jan-02 02:32S 02°10' W 044°09'0 0.3
2017-Jan-02 01:32S 02°10' W 044°09'0 0.0
2016-Dec-31 23:31S 02°10' W 044°09'0 0.0
2016-Dec-31 22:31S 02°10' W 044°09'0 0.0
2016-Dec-31 21:28S 02°10' W 044°09'0 0.0
2016-Dec-31 20:31S 02°10' W 044°09'0 0.0
2016-Dec-31 19:28S 02°10' W 044°09'0 0.0
2016-Dec-31 18:31S 02°10' W 044°09'0 0.0
2016-Dec-31 17:31S 02°10' W 044°09'0 0.2
2016-Dec-31 16:31S 02°10' W 044°09'0 0.0
2016-Dec-31 15:28S 02°10' W 044°09'0 0.0
2016-Dec-31 14:31S 02°10' W 044°09'0 0.0
2016-Dec-31 13:31S 02°10' W 044°09'0 0.2
2016-Dec-31 12:31S 02°10' W 044°09'0 0.1
2016-Dec-31 11:28S 02°10' W 044°09'0 0.0
2016-Dec-31 10:22S 02°10' W 044°09'0 0.0
2016-Dec-31 09:28S 02°10' W 044°09'0 0.0
2016-Dec-31 08:31S 02°10' W 044°09'0 0.0
2016-Dec-31 07:31S 02°10' W 044°09'0 0.1
2016-Dec-31 06:31S 02°10' W 044°09'0 0.0
2016-Dec-31 05:31S 02°10' W 044°09'0 0.1
2016-Dec-31 02:07S 02°10' W 044°09'0 0.1
2016-Dec-31 01:10S 02°10' W 044°09'0 0.3
2016-Dec-31 00:22S 02°10' W 044°09'0 0.0
2016-Dec-30 20:10S 02°10' W 044°09'0 0.0
2016-Dec-30 19:21S 02°10' W 044°09'0 0.0
2016-Dec-30 18:33S 02°10' W 044°09'0 0.0
2016-Dec-30 17:33S 02°10' W 044°09'0 0.1
2016-Dec-30 16:33S 02°10' W 044°09'2 0.2
2016-Dec-30 04:29S 02°07' W 044°09'  

Dump ship's entire track history